createdAt,value
2023-03-05T00:01:07.599Z,98252.31
2023-03-05T00:03:34.392Z,98265.06
2023-03-05T00:06:01.038Z,98268.38
2023-03-05T00:08:28.761Z,98266.38
2023-03-05T00:10:57.417Z,98278.16
2023-03-05T00:13:24.213Z,98278.94
2023-03-05T00:15:50.790Z,98283.97
2023-03-05T00:18:18.079Z,98282.31
2023-03-05T00:20:44.691Z,98283.81
2023-03-05T00:23:11.238Z,98286.19
2023-03-05T00:25:38.151Z,98287.78
2023-03-05T00:28:05.374Z,98304.50
2023-03-05T00:30:32.995Z,98289.50
2023-03-05T00:32:59.633Z,98296.38
2023-03-05T00:35:26.334Z,98292.06
2023-03-05T00:37:53.101Z,98290.22
2023-03-05T00:40:19.874Z,98294.47
2023-03-05T00:42:46.559Z,98292.97
2023-03-05T00:45:13.565Z,98298.34
2023-03-05T00:47:40.184Z,98313.47
2023-03-05T00:50:07.417Z,98312.75
2023-03-05T00:52:34.229Z,98308.69
2023-03-05T00:55:00.762Z,98313.56
2023-03-05T00:57:27.295Z,98316.22
2023-03-05T00:59:53.824Z,98325.03
2023-03-05T01:02:20.449Z,98333.28
2023-03-05T01:04:47.508Z,98334.22
2023-03-05T01:07:14.274Z,98333.56
2023-03-05T01:09:40.833Z,98331.00
2023-03-05T01:12:07.787Z,98339.31
2023-03-05T01:14:35.818Z,98335.88
2023-03-05T01:17:02.890Z,98329.13
2023-03-05T01:19:29.895Z,98336.16
2023-03-05T01:21:56.394Z,98339.03
2023-03-05T01:24:23.403Z,98330.28
2023-03-05T01:26:49.961Z,98336.31
2023-03-05T01:29:16.696Z,98334.72
2023-03-05T01:31:43.420Z,98342.59
2023-03-05T01:34:10.058Z,98348.00
2023-03-05T01:36:36.599Z,98340.03
2023-03-05T01:39:03.563Z,98356.19
2023-03-05T01:41:30.069Z,98346.44
2023-03-05T01:43:56.636Z,98355.69
2023-03-05T01:46:37.463Z,98350.91
2023-03-05T01:49:15.657Z,98350.91
2023-03-05T01:51:51.295Z,98355.94
2023-03-05T01:54:20.883Z,98351.81
2023-03-05T01:56:50.193Z,98352.66
2023-03-05T01:59:18.221Z,98356.28
2023-03-05T02:01:48.403Z,98358.81
2023-03-05T02:04:18.721Z,98357.25
2023-03-05T02:06:47.114Z,98357.94
2023-03-05T02:09:13.985Z,98363.78
2023-03-05T02:11:41.205Z,98361.13
2023-03-05T02:14:10.127Z,98375.41
2023-03-05T02:16:38.420Z,98376.28
2023-03-05T02:19:08.581Z,98382.88
2023-03-05T02:21:44.282Z,98378.00
2023-03-05T02:24:31.898Z,98384.69
2023-03-05T02:26:59.280Z,98392.28
2023-03-05T02:29:28.652Z,98383.81
2023-03-05T02:31:55.551Z,98383.81
2023-03-05T02:34:23.160Z,98374.34
2023-03-05T02:36:50.748Z,98386.09
2023-03-05T02:39:17.609Z,98382.69
2023-03-05T02:41:44.131Z,98394.59
2023-03-05T02:44:10.675Z,98397.97
2023-03-05T02:46:37.271Z,98399.78
2023-03-05T02:49:03.783Z,98399.88
2023-03-05T02:51:30.301Z,98408.22
2023-03-05T02:53:56.846Z,98403.84
2023-03-05T02:56:23.475Z,98411.47
2023-03-05T02:58:50.004Z,98415.56
2023-03-05T03:01:16.677Z,98401.19
2023-03-05T03:03:43.272Z,98415.72
2023-03-05T03:06:09.811Z,98408.97
2023-03-05T03:08:36.371Z,98409.03
2023-03-05T03:11:08.434Z,98406.50
2023-03-05T03:13:35.042Z,98410.09
2023-03-05T03:16:13.909Z,98409.09
2023-03-05T03:18:40.534Z,98407.97
2023-03-05T03:21:07.960Z,98406.31
2023-03-05T03:23:34.860Z,98423.31
2023-03-05T03:26:01.405Z,98430.03
2023-03-05T03:28:27.972Z,98407.22
2023-03-05T03:30:54.686Z,98421.44
2023-03-05T03:33:21.270Z,98414.69
2023-03-05T03:35:47.857Z,98411.38
2023-03-05T03:38:14.618Z,98402.94
2023-03-05T03:40:42.227Z,98414.75
2023-03-05T03:43:09.151Z,98404.91
2023-03-05T03:45:35.791Z,98413.34
2023-03-05T03:48:02.342Z,98410.69
2023-03-05T03:50:28.879Z,98414.97
2023-03-05T03:52:55.438Z,98422.59
2023-03-05T03:55:21.943Z,98423.59
2023-03-05T03:57:48.469Z,98407.66
2023-03-05T04:00:15.452Z,98407.72
2023-03-05T04:02:42.093Z,98406.56
2023-03-05T04:05:09.231Z,98409.09
2023-03-05T04:07:35.826Z,98409.94
2023-03-05T04:10:03.098Z,98411.53
2023-03-05T04:12:29.608Z,98418.22
2023-03-05T04:14:56.165Z,98408.00
2023-03-05T04:17:22.749Z,98414.53
2023-03-05T04:19:49.310Z,98411.38
2023-03-05T04:22:17.375Z,98416.56
2023-03-05T04:24:44.069Z,98413.03
2023-03-05T04:27:11.649Z,98415.72
2023-03-05T04:29:38.437Z,98411.69
2023-03-05T04:32:05.415Z,98407.44
2023-03-05T04:34:32.923Z,98409.94
2023-03-05T04:36:59.698Z,98415.63
2023-03-05T04:39:26.297Z,98419.94
2023-03-05T04:41:52.837Z,98417.47
2023-03-05T04:44:19.482Z,98416.72
2023-03-05T04:46:46.159Z,98419.88
2023-03-05T04:49:12.722Z,98426.63
2023-03-05T04:51:39.287Z,98431.50
2023-03-05T04:54:05.983Z,98436.81
2023-03-05T04:56:32.551Z,98441.84
2023-03-05T04:58:59.415Z,98445.78
2023-03-05T05:01:26.168Z,98442.75
2023-03-05T05:03:52.750Z,98446.88
2023-03-05T05:06:19.331Z,98451.25
2023-03-05T05:08:45.854Z,98447.16
2023-03-05T05:11:14.145Z,98462.31
2023-03-05T05:13:40.727Z,98445.59
2023-03-05T05:16:08.055Z,98463.25
2023-03-05T05:18:34.749Z,98459.88
2023-03-05T05:21:01.361Z,98462.38
2023-03-05T05:23:27.905Z,98464.84
2023-03-05T05:26:02.383Z,98464.69
2023-03-05T05:28:29.116Z,98463.19
2023-03-05T05:30:55.742Z,98475.16
2023-03-05T05:33:22.952Z,98470.22
2023-03-05T05:35:49.804Z,98472.84
2023-03-05T05:38:16.539Z,98478.19
2023-03-05T05:40:43.192Z,98476.75
2023-03-05T05:43:09.715Z,98477.53
2023-03-05T05:45:38.603Z,98477.75
2023-03-05T05:48:05.340Z,98485.63
2023-03-05T05:50:31.882Z,98480.47
2023-03-05T05:52:58.457Z,98489.88
2023-03-05T05:55:25.032Z,98472.34
2023-03-05T05:57:51.560Z,98468.97
2023-03-05T06:00:18.462Z,98473.72
2023-03-05T06:02:45.054Z,98468.53
2023-03-05T06:05:14.832Z,98473.00
2023-03-05T06:07:41.821Z,98471.00
2023-03-05T06:10:09.928Z,98475.63
2023-03-05T06:12:36.498Z,98481.81
2023-03-05T06:15:03.224Z,98478.59
2023-03-05T06:17:31.023Z,98480.56
2023-03-05T06:19:58.794Z,98483.06
2023-03-05T06:22:25.539Z,98493.94
2023-03-05T06:24:52.126Z,98499.81
2023-03-05T06:27:18.724Z,98493.69
2023-03-05T06:29:45.230Z,98499.34
2023-03-05T06:32:11.888Z,98499.94
2023-03-05T06:34:38.459Z,98498.06
2023-03-05T06:37:05.000Z,98505.03
2023-03-05T06:39:31.683Z,98506.97
2023-03-05T06:41:58.342Z,98500.38
2023-03-05T06:44:25.688Z,98519.16
2023-03-05T06:46:52.558Z,98503.66
2023-03-05T06:49:19.168Z,98501.16
2023-03-05T06:51:45.783Z,98502.06
2023-03-05T06:54:15.008Z,98508.03
2023-03-05T06:56:43.843Z,98516.13
2023-03-05T06:59:11.979Z,98512.47
2023-03-05T07:01:38.620Z,98523.59
2023-03-05T07:04:06.784Z,98516.13
2023-03-05T07:06:35.970Z,98516.38
2023-03-05T07:09:04.842Z,98520.75
2023-03-05T07:11:31.634Z,98516.59
2023-03-05T07:13:58.184Z,98529.25
2023-03-05T07:16:27.956Z,98523.88
2023-03-05T07:18:57.326Z,98534.59
2023-03-05T07:21:26.608Z,98540.09
2023-03-05T07:23:54.780Z,98530.94
2023-03-05T07:26:22.805Z,98535.13
2023-03-05T07:28:49.365Z,98539.03
2023-03-05T07:31:19.351Z,98541.84
2023-03-05T07:33:47.472Z,98540.13
2023-03-05T07:36:14.648Z,98548.69
2023-03-05T07:38:41.915Z,98553.44
2023-03-05T07:41:11.405Z,98554.38
2023-03-05T07:43:38.136Z,98556.00
2023-03-05T07:46:09.585Z,98554.94
2023-03-05T07:48:36.260Z,98552.38
2023-03-05T07:51:08.245Z,98555.38
2023-03-05T07:53:35.104Z,98549.78
2023-03-05T07:56:01.734Z,98560.06
2023-03-05T07:58:29.263Z,98549.72
2023-03-05T08:00:55.824Z,98551.22
2023-03-05T08:03:22.352Z,98553.53
2023-03-05T08:05:49.113Z,98563.84
2023-03-05T08:08:16.538Z,98570.31
2023-03-05T08:10:43.230Z,98565.09
2023-03-05T08:13:10.210Z,98555.63
2023-03-05T08:15:38.322Z,98556.75
2023-03-05T08:18:05.018Z,98556.63
2023-03-05T08:20:31.587Z,98561.06
2023-03-05T08:22:58.103Z,98564.50
2023-03-05T08:25:24.617Z,98558.22
2023-03-05T08:27:51.250Z,98557.38
2023-03-05T08:30:22.309Z,98556.38
2023-03-05T08:32:49.890Z,98571.50
2023-03-05T08:35:16.529Z,98565.91
2023-03-05T08:37:43.416Z,98560.31
2023-03-05T08:40:10.740Z,98563.63
2023-03-05T08:42:37.252Z,98567.78
2023-03-05T08:45:03.920Z,98560.19
2023-03-05T08:47:30.445Z,98569.00
2023-03-05T08:49:57.667Z,98563.44
2023-03-05T08:52:24.628Z,98578.66
2023-03-05T08:54:51.167Z,98570.09
2023-03-05T08:57:17.894Z,98571.16
2023-03-05T08:59:44.500Z,98578.03
2023-03-05T09:02:12.941Z,98578.16
2023-03-05T09:04:39.608Z,98576.44
2023-03-05T09:07:06.354Z,98574.22
2023-03-05T09:09:33.106Z,98578.03
2023-03-05T09:12:00.269Z,98570.66
2023-03-05T09:14:28.396Z,98567.19
2023-03-05T09:16:55.892Z,98564.38
2023-03-05T09:19:22.693Z,98565.47
2023-03-05T09:21:49.234Z,98563.25
2023-03-05T09:24:16.059Z,98562.59
2023-03-05T09:26:42.623Z,98564.84
2023-03-05T09:29:09.494Z,98560.56
2023-03-05T09:31:36.954Z,98556.41
2023-03-05T09:34:04.923Z,98564.34
2023-03-05T09:36:32.239Z,98556.25
2023-03-05T09:38:59.355Z,98553.06
2023-03-05T09:41:55.201Z,98554.16
2023-03-05T09:44:38.624Z,98548.69
2023-03-05T09:47:23.616Z,98553.34
2023-03-05T09:50:11.497Z,98545.22
2023-03-05T09:52:54.508Z,98546.19
2023-03-05T09:55:51.503Z,98541.69
2023-03-05T09:58:29.899Z,98543.56
2023-03-05T10:01:01.434Z,98545.00
2023-03-05T10:03:49.429Z,98541.00
2023-03-05T10:06:28.741Z,98551.66
2023-03-05T10:09:12.671Z,98545.28
2023-03-05T10:11:49.298Z,98541.66
2023-03-05T10:14:26.534Z,98532.69
2023-03-05T10:17:14.493Z,98537.66
2023-03-05T10:20:18.551Z,98548.09
2023-03-05T10:23:19.357Z,98531.44
2023-03-05T10:26:24.307Z,98533.88
2023-03-05T10:29:23.225Z,98527.19
2023-03-05T10:31:58.724Z,98524.16
2023-03-05T10:34:32.599Z,98525.59
2023-03-05T10:37:04.827Z,98528.44
2023-03-05T10:39:46.465Z,98522.56
2023-03-05T10:42:35.307Z,98505.31
2023-03-05T10:45:36.416Z,98517.88
2023-03-05T10:48:36.374Z,98518.50
2023-03-05T10:51:13.495Z,98521.72
2023-03-05T10:53:55.229Z,98503.69
2023-03-05T10:56:24.181Z,98516.50
2023-03-05T10:58:52.703Z,98521.31
2023-03-05T11:01:22.586Z,98513.53
2023-03-05T11:03:53.616Z,98516.25
2023-03-05T11:06:47.772Z,98507.84
2023-03-05T11:09:17.799Z,98512.03
2023-03-05T11:12:01.440Z,98519.81
2023-03-05T11:14:33.580Z,98510.13
2023-03-05T11:17:01.878Z,98508.13
2023-03-05T11:19:33.153Z,98506.03
2023-03-05T11:22:20.655Z,98504.63
2023-03-05T11:25:05.992Z,98504.88
2023-03-05T11:27:42.647Z,98511.81
2023-03-05T11:30:27.897Z,98514.94
2023-03-05T11:33:19.407Z,98513.69
2023-03-05T11:35:48.201Z,98502.31
2023-03-05T11:38:24.637Z,98513.81
2023-03-05T11:40:53.240Z,98515.50
2023-03-05T11:43:22.879Z,98495.53
2023-03-05T11:45:57.924Z,98497.91
2023-03-05T11:48:36.773Z,98500.53
2023-03-05T11:51:36.333Z,98500.66
2023-03-05T11:54:11.850Z,98496.34
2023-03-05T11:56:42.604Z,98492.28
2023-03-05T11:59:31.681Z,98487.06
2023-03-05T12:01:58.692Z,98483.03
2023-03-05T12:04:25.682Z,98487.56
2023-03-05T12:06:57.754Z,98493.25
2023-03-05T12:09:41.048Z,98475.22
2023-03-05T12:12:16.827Z,98485.34
2023-03-05T12:15:01.085Z,98490.00
2023-03-05T12:17:38.595Z,98488.00
2023-03-05T12:20:17.063Z,98483.44
2023-03-05T12:22:44.848Z,98483.09
2023-03-05T12:25:23.442Z,98477.38
2023-03-05T12:27:50.083Z,98478.66
2023-03-05T12:30:34.704Z,98490.31
2023-03-05T12:33:32.953Z,98472.56
2023-03-05T12:36:17.975Z,98473.91
2023-03-05T12:38:51.898Z,98469.25
2023-03-05T12:41:27.476Z,98471.56
2023-03-05T12:44:06.780Z,98465.41
2023-03-05T12:46:37.077Z,98468.47
2023-03-05T12:49:18.975Z,98466.50
2023-03-05T12:51:53.837Z,98464.56
2023-03-05T12:54:40.974Z,98471.81
2023-03-05T12:57:23.574Z,98463.09
2023-03-05T13:00:14.611Z,98469.66
2023-03-05T13:02:44.208Z,98460.16
2023-03-05T13:05:35.800Z,98475.34
2023-03-05T13:08:23.145Z,98474.22
2023-03-05T13:11:00.574Z,98487.47
2023-03-05T13:13:29.894Z,98474.16
2023-03-05T13:15:57.284Z,98462.66
2023-03-05T13:18:26.508Z,98461.03
2023-03-05T13:21:14.174Z,98463.22
2023-03-05T13:23:58.336Z,98467.47
2023-03-05T13:26:28.603Z,98474.13
2023-03-05T13:29:07.652Z,98462.19
2023-03-05T13:31:42.008Z,98460.41
2023-03-05T13:34:46.310Z,98465.13
2023-03-05T13:37:18.160Z,98471.09
2023-03-05T13:39:48.741Z,98466.88
2023-03-05T13:42:26.049Z,98472.72
2023-03-05T13:45:06.154Z,98467.47
2023-03-05T13:47:35.673Z,98462.47
2023-03-05T13:50:05.868Z,98463.44
2023-03-05T13:52:35.985Z,98461.13
2023-03-05T13:55:05.188Z,98462.31
2023-03-05T13:57:41.356Z,98451.63
2023-03-05T14:00:34.275Z,98453.94
2023-03-05T14:03:21.186Z,98444.47
2023-03-05T14:05:50.008Z,98444.47
2023-03-05T14:08:25.542Z,98432.78
2023-03-05T14:10:54.505Z,98437.16
2023-03-05T14:13:23.606Z,98444.56
2023-03-05T14:16:12.695Z,98440.91
2023-03-05T14:18:52.091Z,98427.94
2023-03-05T14:21:18.683Z,98440.59
2023-03-05T14:23:51.589Z,98443.81
2023-03-05T14:26:20.848Z,98447.00
2023-03-05T14:28:52.885Z,98440.66
2023-03-05T14:31:20.501Z,98448.09
2023-03-05T14:33:48.109Z,98446.22
2023-03-05T14:36:14.833Z,98438.53
2023-03-05T14:38:43.198Z,98438.75
2023-03-05T14:41:34.482Z,98448.16
2023-03-05T14:44:01.292Z,98434.53
2023-03-05T14:46:28.982Z,98442.28
2023-03-05T14:48:55.665Z,98438.19
2023-03-05T14:51:22.271Z,98434.94
2023-03-05T14:53:51.021Z,98436.47
2023-03-05T14:56:28.500Z,98423.44
2023-03-05T14:58:57.480Z,98441.91
2023-03-05T15:01:25.347Z,98434.88
2023-03-05T15:03:52.283Z,98431.06
2023-03-05T15:06:29.342Z,98433.38
2023-03-05T15:08:55.995Z,98436.53
2023-03-05T15:11:23.133Z,98441.34
2023-03-05T15:13:52.448Z,98440.28
2023-03-05T15:16:19.852Z,98442.72
2023-03-05T15:18:46.625Z,98450.94
2023-03-05T15:21:13.276Z,98449.22
2023-03-05T15:23:40.156Z,98447.31
2023-03-05T15:26:09.222Z,98447.22
2023-03-05T15:28:40.044Z,98453.00
2023-03-05T15:31:07.201Z,98452.88
2023-03-05T15:33:34.127Z,98446.75
2023-03-05T15:36:00.791Z,98455.06
2023-03-05T15:38:27.401Z,98448.97
2023-03-05T15:40:54.435Z,98438.69
2023-03-05T15:43:21.339Z,98453.88
2023-03-05T15:45:48.257Z,98450.34
2023-03-05T15:48:14.824Z,98453.75
2023-03-05T15:50:43.393Z,98457.03
2023-03-05T15:53:13.107Z,98460.38
2023-03-05T15:55:40.830Z,98459.47
2023-03-05T15:58:07.549Z,98459.31
2023-03-05T16:00:36.795Z,98466.84
2023-03-05T16:03:04.166Z,98461.56
2023-03-05T16:05:31.089Z,98456.25
2023-03-05T16:08:00.010Z,98452.88
2023-03-05T16:10:28.766Z,98460.50
2023-03-05T16:13:01.226Z,98462.22
2023-03-05T16:15:28.231Z,98468.00
2023-03-05T16:17:58.738Z,98461.84
2023-03-05T16:20:25.490Z,98468.59
2023-03-05T16:22:52.136Z,98465.88
2023-03-05T16:25:18.942Z,98469.81
2023-03-05T16:27:45.729Z,98466.97
2023-03-05T16:30:14.769Z,98462.22
2023-03-05T16:32:41.659Z,98474.78
2023-03-05T16:35:11.988Z,98483.91
2023-03-05T16:37:39.884Z,98469.34
2023-03-05T16:40:08.598Z,98478.66
2023-03-05T16:42:35.487Z,98476.78
2023-03-05T16:45:02.325Z,98485.41
2023-03-05T16:47:29.071Z,98488.69
2023-03-05T16:49:55.640Z,98481.09
2023-03-05T16:52:22.558Z,98481.94
2023-03-05T16:54:49.231Z,98486.88
2023-03-05T16:57:16.009Z,98469.72
2023-03-05T16:59:43.760Z,98475.53
2023-03-05T17:02:12.725Z,98480.53
2023-03-05T17:04:39.269Z,98482.81
2023-03-05T17:07:05.891Z,98484.34
2023-03-05T17:09:32.554Z,98477.44
2023-03-05T17:11:59.411Z,98481.59
2023-03-05T17:14:26.810Z,98477.16
2023-03-05T17:16:53.821Z,98485.72
2023-03-05T17:19:20.440Z,98469.56
2023-03-05T17:21:50.673Z,98481.53
2023-03-05T17:24:17.498Z,98479.00
2023-03-05T17:26:44.189Z,98468.75
2023-03-05T17:29:10.842Z,98469.56
2023-03-05T17:31:37.435Z,98461.97
2023-03-05T17:34:04.260Z,98457.00
2023-03-05T17:36:32.159Z,98452.84
2023-03-05T17:38:58.746Z,98458.69
2023-03-05T17:41:25.296Z,98460.47
2023-03-05T17:43:51.817Z,98454.47
2023-03-05T17:46:18.365Z,98458.75
2023-03-05T17:48:44.998Z,98453.72
2023-03-05T17:51:13.685Z,98460.47
2023-03-05T17:53:40.716Z,98458.63
2023-03-05T17:56:11.984Z,98462.59
2023-03-05T17:58:38.748Z,98453.66
2023-03-05T18:01:07.907Z,98451.59
2023-03-05T18:03:35.558Z,98449.50
2023-03-05T18:06:02.580Z,98455.41
2023-03-05T18:08:29.237Z,98454.22
2023-03-05T18:10:55.860Z,98463.47
2023-03-05T18:13:22.438Z,98455.47
2023-03-05T18:15:49.012Z,98463.13
2023-03-05T18:18:16.949Z,98454.47
2023-03-05T18:20:44.108Z,98464.16
2023-03-05T18:23:11.508Z,98470.09
2023-03-05T18:25:38.176Z,98471.66
2023-03-05T18:28:08.319Z,98467.31
2023-03-05T18:30:35.384Z,98467.16
2023-03-05T18:33:02.651Z,98467.16
2023-03-05T18:35:30.103Z,98460.25
2023-03-05T18:37:57.258Z,98462.69
2023-03-05T18:40:26.353Z,98470.38
2023-03-05T18:42:53.107Z,98463.44
2023-03-05T18:45:21.964Z,98456.47
2023-03-05T18:47:49.148Z,98464.84
2023-03-05T18:50:18.538Z,98467.31
2023-03-05T18:52:45.696Z,98464.72
2023-03-05T18:55:17.879Z,98470.50
2023-03-05T18:57:44.570Z,98471.25
2023-03-05T19:00:14.571Z,98472.81
2023-03-05T19:02:41.174Z,98471.06
2023-03-05T19:05:08.151Z,98468.22
2023-03-05T19:07:35.222Z,98469.03
2023-03-05T19:10:07.448Z,98468.03
2023-03-05T19:13:10.557Z,98468.63
2023-03-05T19:15:39.905Z,98469.47
2023-03-05T19:18:06.520Z,98470.91
2023-03-05T19:20:33.036Z,98477.66
2023-03-05T19:22:59.617Z,98470.09
2023-03-05T19:25:26.126Z,98474.16
2023-03-05T19:27:52.756Z,98478.31
2023-03-05T19:30:19.676Z,98473.09
2023-03-05T19:32:47.196Z,98467.22
2023-03-05T19:35:17.367Z,98469.59
2023-03-05T19:37:45.992Z,98467.84
2023-03-05T19:40:14.540Z,98476.06
2023-03-05T19:42:41.254Z,98470.13
2023-03-05T19:45:08.484Z,98473.34
2023-03-05T19:47:35.135Z,98463.22
2023-03-05T19:50:01.835Z,98469.06
2023-03-05T19:52:28.402Z,98468.97
2023-03-05T19:54:54.973Z,98464.63
2023-03-05T19:57:21.629Z,98465.47
2023-03-05T19:59:51.989Z,98465.47
2023-03-05T20:02:21.682Z,98456.88
2023-03-05T20:04:49.442Z,98462.91
2023-03-05T20:07:16.146Z,98459.38
2023-03-05T20:09:42.750Z,98457.47
2023-03-05T20:12:10.307Z,98446.50
2023-03-05T20:14:37.107Z,98444.00
2023-03-05T20:17:03.832Z,98440.50
2023-03-05T20:19:30.420Z,98435.59
2023-03-05T20:21:56.982Z,98434.00
2023-03-05T20:24:23.497Z,98435.59
2023-03-05T20:26:50.075Z,98444.00
2023-03-05T20:29:18.506Z,98438.91
2023-03-05T20:31:47.734Z,98441.56
2023-03-05T20:34:17.073Z,98431.97
2023-03-05T20:36:46.483Z,98432.88
2023-03-05T20:39:13.052Z,98427.69
2023-03-05T20:41:40.262Z,98431.31
2023-03-05T20:44:07.985Z,98424.31
2023-03-05T20:46:37.149Z,98428.66
2023-03-05T20:49:04.978Z,98423.63
2023-03-05T20:51:35.078Z,98428.56
2023-03-05T20:54:04.867Z,98426.00
2023-03-05T20:56:32.694Z,98419.25
2023-03-05T20:59:02.858Z,98425.84
2023-03-05T21:01:30.569Z,98425.84
2023-03-05T21:03:57.337Z,98417.38
2023-03-05T21:06:25.166Z,98425.94
2023-03-05T21:08:52.291Z,98415.78
2023-03-05T21:11:19.307Z,98419.38
2023-03-05T21:13:46.000Z,98419.50
2023-03-05T21:16:19.112Z,98414.59
2023-03-05T21:18:45.812Z,98413.00
2023-03-05T21:21:12.478Z,98391.94
2023-03-05T21:23:39.090Z,98399.66
2023-03-05T21:26:05.931Z,98401.34
2023-03-05T21:28:33.072Z,98403.19
2023-03-05T21:31:06.761Z,98394.03
2023-03-05T21:33:33.272Z,98387.22
2023-03-05T21:35:59.913Z,98395.75
2023-03-05T21:38:29.743Z,98400.94
2023-03-05T21:40:58.232Z,98398.41
2023-03-05T21:43:25.994Z,98406.03
2023-03-05T21:45:54.666Z,98396.03
2023-03-05T21:48:22.603Z,98398.31
2023-03-05T21:50:49.776Z,98393.09
2023-03-05T21:53:17.374Z,98400.00
2023-03-05T21:56:22.333Z,98400.00
2023-03-05T21:58:49.839Z,98405.16
2023-03-05T22:01:19.245Z,98398.41
2023-03-05T22:03:45.978Z,98398.41
2023-03-05T22:06:15.587Z,98395.09
2023-03-05T22:08:42.661Z,98387.34
2023-03-05T22:11:14.980Z,98389.19
2023-03-05T22:13:41.819Z,98386.63
2023-03-05T22:16:09.304Z,98382.44
2023-03-05T22:18:36.564Z,98393.50
2023-03-05T22:21:03.565Z,98380.84
2023-03-05T22:23:34.079Z,98383.44
2023-03-05T22:26:06.252Z,98383.50
2023-03-05T22:28:34.039Z,98380.97
2023-03-05T22:31:01.126Z,98388.66
2023-03-05T22:33:28.656Z,98378.50
2023-03-05T22:35:55.320Z,98383.53
2023-03-05T22:38:22.497Z,98374.34
2023-03-05T22:40:50.098Z,98376.91
2023-03-05T22:43:18.149Z,98368.56
2023-03-05T22:45:45.271Z,98376.38
2023-03-05T22:48:12.035Z,98372.34
2023-03-05T22:50:40.037Z,98379.13
2023-03-05T22:53:06.688Z,98368.97
2023-03-05T22:55:33.284Z,98370.81
2023-03-05T22:57:59.796Z,98363.28
2023-03-05T23:00:29.060Z,98359.91
2023-03-05T23:02:56.301Z,98368.34
2023-03-05T23:05:22.848Z,98360.78
2023-03-05T23:07:49.492Z,98363.41
2023-03-05T23:10:26.997Z,98359.25
2023-03-05T23:12:55.030Z,98352.50
2023-03-05T23:15:31.046Z,98360.13
2023-03-05T23:17:58.175Z,98359.47
2023-03-05T23:20:28.233Z,98354.44
2023-03-05T23:22:56.186Z,98342.75
2023-03-05T23:25:26.619Z,98349.47
2023-03-05T23:27:53.739Z,98353.69
2023-03-05T23:30:24.907Z,98355.41
2023-03-05T23:32:55.369Z,98347.81
2023-03-05T23:35:25.108Z,98357.34
2023-03-05T23:37:53.452Z,98361.59
2023-03-05T23:40:32.021Z,98356.56
2023-03-05T23:42:58.608Z,98357.34
2023-03-05T23:45:25.930Z,98353.09
2023-03-05T23:47:53.111Z,98354.94
2023-03-05T23:50:28.784Z,98354.13
2023-03-05T23:52:55.793Z,98361.69
2023-03-05T23:55:32.249Z,98349.00
2023-03-05T23:57:58.982Z,98354.31
